createdAt,value
2022-12-24T00:01:03.069Z,14.03
2022-12-24T00:03:30.315Z,13.51
2022-12-24T00:05:57.387Z,13.30
2022-12-24T00:08:24.627Z,13.52
2022-12-24T00:10:53.212Z,13.52
2022-12-24T00:13:21.343Z,13.68
2022-12-24T00:15:48.756Z,13.60
2022-12-24T00:18:16.318Z,13.44
2022-12-24T00:20:47.679Z,13.19
2022-12-24T00:23:15.827Z,13.60
2022-12-24T00:25:42.600Z,13.37
2022-12-24T00:28:09.700Z,13.28
2022-12-24T00:30:39.282Z,13.28
2022-12-24T00:33:06.402Z,12.96
2022-12-24T00:35:37.915Z,13.15
2022-12-24T00:38:04.893Z,12.91
2022-12-24T00:40:32.266Z,12.94
2022-12-24T00:42:59.298Z,12.93
2022-12-24T00:45:27.979Z,12.96
2022-12-24T00:47:54.904Z,13.03
2022-12-24T00:50:21.694Z,13.27
2022-12-24T00:52:48.885Z,13.01
2022-12-24T00:55:15.609Z,12.97
2022-12-24T00:57:42.457Z,13.15
2022-12-24T01:00:09.926Z,13.01
2022-12-24T01:02:39.656Z,13.35
2022-12-24T01:05:14.571Z,12.99
2022-12-24T01:07:48.218Z,13.15
2022-12-24T01:10:19.351Z,13.34
2022-12-24T01:12:47.168Z,13.13
2022-12-24T01:15:14.670Z,13.21
2022-12-24T01:17:41.582Z,12.86
2022-12-24T01:20:14.398Z,13.14
2022-12-24T01:22:41.120Z,13.84
2022-12-24T01:25:08.245Z,13.76
2022-12-24T01:27:35.046Z,13.61
2022-12-24T01:30:01.842Z,13.78
2022-12-24T01:32:28.833Z,13.11
2022-12-24T01:34:55.659Z,13.27
2022-12-24T01:37:22.484Z,12.93
2022-12-24T01:39:49.225Z,13.47
2022-12-24T01:42:40.470Z,13.22
2022-12-24T01:45:41.689Z,13.01
2022-12-24T01:48:18.057Z,13.05
2022-12-24T01:50:45.145Z,13.51
2022-12-24T01:53:13.627Z,13.23
2022-12-24T01:55:41.176Z,13.33
2022-12-24T01:58:09.918Z,12.98
2022-12-24T02:00:37.592Z,13.00
2022-12-24T02:03:04.924Z,13.28
2022-12-24T02:05:51.873Z,13.54
2022-12-24T02:08:19.024Z,13.87
2022-12-24T02:10:46.929Z,13.25
2022-12-24T02:13:15.599Z,13.37
2022-12-24T02:16:10.367Z,13.63
2022-12-24T02:18:46.591Z,14.20
2022-12-24T02:21:37.823Z,13.76
2022-12-24T02:24:33.163Z,13.04
2022-12-24T02:27:11.015Z,13.35
2022-12-24T02:30:05.061Z,12.96
2022-12-24T02:32:56.914Z,12.93
2022-12-24T02:35:31.283Z,13.28
2022-12-24T02:38:03.226Z,13.39
2022-12-24T02:40:38.580Z,13.18
2022-12-24T02:43:11.709Z,12.77
2022-12-24T02:45:40.150Z,12.98
2022-12-24T02:48:07.073Z,12.86
2022-12-24T02:50:33.944Z,12.79
2022-12-24T02:53:00.775Z,12.59
2022-12-24T02:55:47.750Z,12.67
2022-12-24T02:59:12.146Z,12.78
2022-12-24T03:01:45.063Z,12.87
2022-12-24T03:04:39.518Z,12.66
2022-12-24T03:07:09.557Z,12.90
2022-12-24T03:10:02.757Z,12.48
2022-12-24T03:12:39.919Z,13.02
2022-12-24T03:15:09.283Z,12.69
2022-12-24T03:17:37.623Z,12.61
2022-12-24T03:20:06.470Z,12.84
2022-12-24T03:22:34.699Z,13.14
2022-12-24T03:25:01.619Z,12.93
2022-12-24T03:27:29.716Z,13.22
2022-12-24T03:29:56.851Z,13.06
2022-12-24T03:32:25.943Z,12.66
2022-12-24T03:34:52.739Z,12.96
2022-12-24T03:37:19.726Z,13.14
2022-12-24T03:39:46.522Z,12.96
2022-12-24T03:42:13.558Z,13.03
2022-12-24T03:44:40.366Z,12.95
2022-12-24T03:47:08.493Z,12.76
2022-12-24T03:49:35.407Z,12.91
2022-12-24T03:52:02.238Z,12.62
2022-12-24T03:54:29.112Z,13.10
2022-12-24T03:56:55.810Z,12.55
2022-12-24T03:59:22.446Z,12.55
2022-12-24T04:01:49.504Z,12.48
2022-12-24T04:04:16.546Z,13.01
2022-12-24T04:06:43.355Z,12.51
2022-12-24T04:09:10.027Z,12.85
2022-12-24T04:11:36.874Z,12.86
2022-12-24T04:14:03.781Z,12.77
2022-12-24T04:16:30.509Z,12.57
2022-12-24T04:18:57.219Z,12.60
2022-12-24T04:21:24.899Z,12.58
2022-12-24T04:23:52.058Z,13.02
2022-12-24T04:26:18.994Z,12.42
2022-12-24T04:28:45.685Z,12.51
2022-12-24T04:31:15.096Z,12.89
2022-12-24T04:33:42.062Z,13.08
2022-12-24T04:36:12.269Z,12.70
2022-12-24T04:38:39.346Z,13.14
2022-12-24T04:41:10.740Z,12.89
2022-12-24T04:43:37.839Z,12.83
2022-12-24T04:46:16.017Z,12.89
2022-12-24T04:48:42.882Z,13.81
2022-12-24T04:51:10.323Z,13.07
2022-12-24T04:53:38.562Z,13.17
2022-12-24T04:56:09.344Z,12.99
2022-12-24T04:58:36.283Z,12.93
2022-12-24T05:01:08.342Z,12.89
2022-12-24T05:03:35.965Z,13.16
2022-12-24T05:06:07.609Z,13.38
2022-12-24T05:08:35.180Z,13.31
2022-12-24T05:11:02.768Z,13.23
2022-12-24T05:13:37.624Z,13.74
2022-12-24T05:16:09.764Z,12.92
2022-12-24T05:18:36.774Z,13.11
2022-12-24T05:21:03.670Z,12.64
2022-12-24T05:23:49.300Z,12.70
2022-12-24T05:26:37.437Z,12.91
2022-12-24T05:29:05.602Z,12.59
2022-12-24T05:31:33.591Z,13.38
2022-12-24T05:34:01.464Z,13.42
2022-12-24T05:36:28.515Z,13.38
2022-12-24T05:38:55.586Z,12.47
2022-12-24T05:41:22.670Z,12.59
2022-12-24T05:43:49.648Z,12.88
2022-12-24T05:46:19.176Z,12.75
2022-12-24T05:48:46.706Z,12.55
2022-12-24T05:51:15.368Z,12.46
2022-12-24T05:53:42.174Z,12.94
2022-12-24T05:56:11.393Z,13.00
2022-12-24T05:58:41.674Z,12.60
2022-12-24T06:01:09.201Z,12.62
2022-12-24T06:03:36.199Z,12.50
2022-12-24T06:06:11.911Z,12.60
2022-12-24T06:08:39.550Z,12.50
2022-12-24T06:11:09.560Z,12.82
2022-12-24T06:13:37.242Z,13.01
2022-12-24T06:16:06.402Z,12.65
2022-12-24T06:18:34.703Z,13.08
2022-12-24T06:21:01.513Z,12.95
2022-12-24T06:23:33.781Z,13.16
2022-12-24T06:26:01.177Z,12.92
2022-12-24T06:28:29.356Z,13.74
2022-12-24T06:31:02.393Z,13.13
2022-12-24T06:33:30.207Z,12.90
2022-12-24T06:35:56.902Z,12.93
2022-12-24T06:38:23.633Z,12.84
2022-12-24T06:40:50.428Z,13.35
2022-12-24T06:43:17.329Z,12.76
2022-12-24T06:45:48.573Z,13.06
2022-12-24T06:48:15.826Z,13.29
2022-12-24T06:50:43.134Z,12.58
2022-12-24T06:53:10.116Z,12.64
2022-12-24T06:55:36.869Z,12.75
2022-12-24T06:58:04.273Z,13.19
2022-12-24T07:00:31.043Z,13.07
2022-12-24T07:02:58.335Z,12.96
2022-12-24T07:05:25.298Z,12.96
2022-12-24T07:07:52.061Z,13.29
2022-12-24T07:10:19.745Z,12.95
2022-12-24T07:12:47.656Z,13.41
2022-12-24T07:15:14.477Z,13.42
2022-12-24T07:17:45.407Z,13.24
2022-12-24T07:20:15.050Z,13.41
2022-12-24T07:22:42.841Z,13.20
2022-12-24T07:25:10.284Z,13.00
2022-12-24T07:27:37.298Z,13.08
2022-12-24T07:30:05.003Z,13.00
2022-12-24T07:32:32.087Z,13.40
2022-12-24T07:34:58.935Z,13.32
2022-12-24T07:37:25.780Z,13.33
2022-12-24T07:39:52.912Z,13.43
2022-12-24T07:42:20.581Z,13.24
2022-12-24T07:44:47.587Z,12.99
2022-12-24T07:47:14.364Z,13.37
2022-12-24T07:49:41.192Z,12.96
2022-12-24T07:52:08.287Z,12.79
2022-12-24T07:54:35.271Z,13.47
2022-12-24T07:57:02.120Z,13.54
2022-12-24T07:59:28.867Z,13.64
2022-12-24T08:01:56.042Z,13.09
2022-12-24T08:04:22.792Z,13.58
2022-12-24T08:06:49.476Z,13.18
2022-12-24T08:09:16.230Z,13.07
2022-12-24T08:11:48.123Z,13.38
2022-12-24T08:14:18.245Z,13.26
2022-12-24T08:16:44.968Z,13.45
2022-12-24T08:19:12.009Z,13.41
2022-12-24T08:21:38.916Z,12.81
2022-12-24T08:24:06.432Z,13.10
2022-12-24T08:26:33.256Z,12.65
2022-12-24T08:29:00.048Z,13.09
2022-12-24T08:31:26.864Z,13.48
2022-12-24T08:33:53.717Z,12.85
2022-12-24T08:36:20.468Z,13.41
2022-12-24T08:38:47.291Z,12.98
2022-12-24T08:41:13.965Z,13.15
2022-12-24T08:43:40.839Z,13.09
2022-12-24T08:46:07.745Z,13.85
2022-12-24T08:48:35.292Z,13.66
2022-12-24T08:51:07.677Z,13.60
2022-12-24T08:53:34.833Z,13.25
2022-12-24T08:56:07.395Z,13.36
2022-12-24T08:58:34.418Z,13.09
2022-12-24T09:01:01.736Z,13.71
2022-12-24T09:03:29.257Z,13.56
2022-12-24T09:05:56.274Z,13.90
2022-12-24T09:08:23.127Z,13.80
2022-12-24T09:10:49.861Z,14.43
2022-12-24T09:13:16.669Z,13.98
2022-12-24T09:15:43.479Z,13.94
2022-12-24T09:18:10.872Z,13.90
2022-12-24T09:20:41.485Z,14.11
2022-12-24T09:23:11.021Z,14.25
2022-12-24T09:25:45.319Z,13.86
2022-12-24T09:28:12.156Z,13.54
2022-12-24T09:30:38.792Z,13.84
2022-12-24T09:33:05.537Z,14.63
2022-12-24T09:35:32.299Z,14.40
2022-12-24T09:38:07.871Z,13.77
2022-12-24T09:40:39.934Z,13.08
2022-12-24T09:43:17.820Z,13.35
2022-12-24T09:45:54.183Z,14.37
2022-12-24T09:48:25.365Z,13.92
2022-12-24T09:50:55.451Z,13.90
2022-12-24T09:53:45.874Z,13.78
2022-12-24T09:56:31.333Z,14.40
2022-12-24T09:59:02.840Z,14.21
2022-12-24T10:01:31.378Z,13.88
2022-12-24T10:04:19.479Z,13.87
2022-12-24T10:07:11.288Z,13.67
2022-12-24T10:09:52.956Z,13.43
2022-12-24T10:12:47.738Z,13.37
2022-12-24T10:15:22.423Z,13.82
2022-12-24T10:17:52.311Z,13.45
2022-12-24T10:20:37.680Z,13.72
2022-12-24T10:23:11.139Z,13.89
2022-12-24T10:26:26.300Z,13.72
2022-12-24T10:29:22.355Z,13.62
2022-12-24T10:31:58.000Z,13.62
2022-12-24T10:34:28.920Z,13.89
2022-12-24T10:36:56.385Z,13.29
2022-12-24T10:39:25.434Z,13.98
2022-12-24T10:41:55.325Z,13.81
2022-12-24T10:44:24.935Z,13.92
2022-12-24T10:46:51.698Z,14.96
2022-12-24T10:49:45.169Z,14.77
2022-12-24T10:52:15.285Z,14.06
2022-12-24T10:55:11.450Z,15.04
2022-12-24T10:57:39.080Z,14.79
2022-12-24T11:00:07.882Z,15.06
2022-12-24T11:02:37.381Z,13.67
2022-12-24T11:05:07.773Z,14.18
2022-12-24T11:07:34.768Z,14.51
2022-12-24T11:10:05.584Z,14.22
2022-12-24T11:12:38.227Z,14.13
2022-12-24T11:15:07.077Z,14.56
2022-12-24T11:17:34.211Z,13.82
2022-12-24T11:20:03.488Z,14.45
2022-12-24T11:22:31.726Z,14.27
2022-12-24T11:25:00.466Z,14.20
2022-12-24T11:27:33.724Z,14.08
2022-12-24T11:30:33.322Z,14.40
2022-12-24T11:33:00.528Z,14.34
2022-12-24T11:35:28.924Z,14.31
2022-12-24T11:38:01.624Z,14.20
2022-12-24T11:40:40.716Z,14.30
2022-12-24T11:43:15.920Z,14.35
2022-12-24T11:45:49.888Z,14.08
2022-12-24T11:48:33.904Z,14.19
2022-12-24T11:51:03.112Z,14.17
2022-12-24T11:53:47.885Z,14.76
2022-12-24T11:56:33.105Z,14.27
2022-12-24T11:59:10.422Z,14.78
2022-12-24T12:01:45.147Z,14.16
2022-12-24T12:04:22.220Z,14.81
2022-12-24T12:06:56.355Z,14.62
2022-12-24T12:09:44.566Z,14.86
2022-12-24T12:12:19.582Z,14.96
2022-12-24T12:14:53.659Z,14.71
2022-12-24T12:17:35.898Z,14.56
2022-12-24T12:20:14.757Z,14.51
2022-12-24T12:23:04.142Z,14.17
2022-12-24T12:25:40.027Z,14.27
2022-12-24T12:28:22.471Z,14.59
2022-12-24T12:31:11.915Z,15.09
2022-12-24T12:34:17.164Z,14.90
2022-12-24T12:36:53.582Z,15.70
2022-12-24T12:39:20.412Z,14.52
2022-12-24T12:42:02.588Z,15.70
2022-12-24T12:44:45.491Z,14.21
2022-12-24T12:47:51.362Z,14.30
2022-12-24T12:50:33.167Z,14.53
2022-12-24T12:53:15.141Z,14.59
2022-12-24T12:56:00.695Z,14.64
2022-12-24T12:58:44.834Z,15.00
2022-12-24T13:01:32.075Z,14.82
2022-12-24T13:04:24.613Z,14.62
2022-12-24T13:07:24.036Z,14.45
2022-12-24T13:10:20.157Z,14.40
2022-12-24T13:13:20.433Z,14.65
2022-12-24T13:16:15.253Z,15.00
2022-12-24T13:19:11.547Z,14.78
2022-12-24T13:21:43.181Z,15.44
2022-12-24T13:24:26.202Z,14.66
2022-12-24T13:27:07.747Z,14.84
2022-12-24T13:29:43.671Z,15.30
2022-12-24T13:32:22.862Z,15.46
2022-12-24T13:34:56.133Z,15.46
2022-12-24T13:37:32.418Z,15.06
2022-12-24T13:40:15.836Z,14.99
2022-12-24T13:42:59.424Z,14.67
2022-12-24T13:45:29.069Z,14.58
2022-12-24T13:48:02.032Z,15.18
2022-12-24T13:50:50.220Z,15.39
2022-12-24T13:53:26.595Z,15.36
2022-12-24T13:55:59.993Z,14.73
2022-12-24T13:58:28.407Z,15.40
2022-12-24T14:01:03.232Z,15.53
2022-12-24T14:03:33.829Z,15.22
2022-12-24T14:06:13.007Z,14.82
2022-12-24T14:08:47.032Z,14.63
2022-12-24T14:11:22.428Z,14.96
2022-12-24T14:13:49.223Z,15.17
2022-12-24T14:16:18.936Z,15.23
2022-12-24T14:18:50.772Z,14.96
2022-12-24T14:21:22.825Z,14.59
2022-12-24T14:24:02.959Z,15.00
2022-12-24T14:26:38.045Z,14.70
2022-12-24T14:29:12.046Z,15.17
2022-12-24T14:31:38.910Z,15.71
2022-12-24T14:34:13.127Z,14.41
2022-12-24T14:36:43.494Z,14.79
2022-12-24T14:39:15.198Z,15.27
2022-12-24T14:41:51.072Z,15.04
2022-12-24T14:44:35.419Z,14.94
2022-12-24T14:47:24.577Z,14.86
2022-12-24T14:50:16.228Z,15.23
2022-12-24T14:53:06.215Z,15.06
2022-12-24T14:55:40.803Z,14.94
2022-12-24T14:58:33.641Z,15.62
2022-12-24T15:01:04.333Z,15.57
2022-12-24T15:03:33.207Z,15.72
2022-12-24T15:06:03.104Z,15.73
2022-12-24T15:08:38.196Z,15.81
2022-12-24T15:11:07.970Z,15.65
2022-12-24T15:13:37.863Z,15.77
2022-12-24T15:16:15.894Z,15.80
2022-12-24T15:18:49.444Z,15.58
2022-12-24T15:21:37.791Z,15.58
2022-12-24T15:24:04.937Z,14.95
2022-12-24T15:26:36.601Z,15.19
2022-12-24T15:29:17.473Z,15.48
2022-12-24T15:31:44.356Z,15.49
2022-12-24T15:34:35.331Z,15.55
2022-12-24T15:37:12.619Z,15.49
2022-12-24T15:39:40.260Z,15.51
2022-12-24T15:42:15.119Z,15.53
2022-12-24T15:44:47.537Z,15.44
2022-12-24T15:47:18.098Z,15.41
2022-12-24T15:49:49.034Z,15.38
2022-12-24T15:52:18.217Z,15.31
2022-12-24T15:54:52.330Z,15.27
2022-12-24T15:57:27.119Z,15.29
2022-12-24T15:59:58.236Z,15.30
2022-12-24T16:02:25.217Z,15.27
2022-12-24T16:04:52.553Z,15.27
2022-12-24T16:07:26.797Z,15.26
2022-12-24T16:10:13.695Z,15.24
2022-12-24T16:12:41.031Z,15.17
2022-12-24T16:15:14.516Z,15.12
2022-12-24T16:17:41.540Z,14.87
2022-12-24T16:20:18.121Z,14.84
2022-12-24T16:22:46.705Z,14.80
2022-12-24T16:25:28.673Z,14.83
2022-12-24T16:28:00.117Z,14.88
2022-12-24T16:30:27.634Z,14.87
2022-12-24T16:32:54.629Z,14.95
2022-12-24T16:35:26.962Z,14.99
2022-12-24T16:37:54.848Z,15.04
2022-12-24T16:40:26.898Z,15.10
2022-12-24T16:43:14.601Z,14.86
2022-12-24T16:45:42.540Z,14.61
2022-12-24T16:48:11.382Z,14.76
2022-12-24T16:50:38.159Z,14.93
2022-12-24T16:53:05.047Z,14.76
2022-12-24T16:55:32.947Z,15.03
2022-12-24T16:57:59.947Z,14.99
2022-12-24T17:00:26.862Z,14.75
2022-12-24T17:02:54.001Z,14.80
2022-12-24T17:05:23.785Z,14.85
2022-12-24T17:07:52.053Z,14.44
2022-12-24T17:10:18.888Z,14.72
2022-12-24T17:12:45.756Z,14.71
2022-12-24T17:15:12.919Z,14.73
2022-12-24T17:17:39.925Z,14.84
2022-12-24T17:20:08.103Z,14.95
2022-12-24T17:22:35.990Z,14.71
2022-12-24T17:25:03.189Z,14.54
2022-12-24T17:27:30.086Z,14.34
2022-12-24T17:29:56.834Z,14.59
2022-12-24T17:32:25.914Z,14.73
2022-12-24T17:34:53.053Z,14.53
2022-12-24T17:37:19.899Z,14.57
2022-12-24T17:39:47.110Z,14.53
2022-12-24T17:42:14.091Z,14.35
2022-12-24T17:44:40.819Z,14.42
2022-12-24T17:47:07.606Z,14.35
2022-12-24T17:49:34.960Z,14.28
2022-12-24T17:52:01.919Z,14.43
2022-12-24T17:54:31.695Z,14.35
2022-12-24T17:57:01.840Z,14.22
2022-12-24T17:59:28.863Z,14.16
2022-12-24T18:01:55.662Z,14.37
2022-12-24T18:04:22.728Z,14.31
2022-12-24T18:06:50.001Z,14.20
2022-12-24T18:09:17.136Z,14.31
2022-12-24T18:11:44.258Z,14.38
2022-12-24T18:14:14.127Z,14.29
2022-12-24T18:16:41.583Z,14.42
2022-12-24T18:19:10.925Z,14.40
2022-12-24T18:21:37.751Z,14.21
2022-12-24T18:24:05.629Z,14.29
2022-12-24T18:26:33.479Z,14.58
2022-12-24T18:29:01.557Z,14.50
2022-12-24T18:31:29.881Z,14.31
2022-12-24T18:33:57.555Z,14.34
2022-12-24T18:36:24.946Z,13.99
2022-12-24T18:38:52.210Z,14.18
2022-12-24T18:41:22.421Z,14.03
2022-12-24T18:43:49.856Z,13.69
2022-12-24T18:46:19.351Z,13.49
2022-12-24T18:48:47.014Z,13.85
2022-12-24T18:51:17.938Z,13.58
2022-12-24T18:53:45.392Z,14.07
2022-12-24T18:56:26.742Z,14.08
2022-12-24T18:58:56.273Z,14.26
2022-12-24T19:01:25.784Z,14.24
2022-12-24T19:03:53.483Z,13.95
2022-12-24T19:06:21.486Z,14.14
2022-12-24T19:08:57.845Z,14.14
2022-12-24T19:11:27.641Z,14.12
2022-12-24T19:13:54.867Z,14.04
2022-12-24T19:16:22.164Z,14.05
2022-12-24T19:18:49.236Z,14.21
2022-12-24T19:21:17.990Z,13.97
2022-12-24T19:23:48.082Z,14.23
2022-12-24T19:26:16.397Z,13.98
2022-12-24T19:28:43.716Z,13.63
2022-12-24T19:31:19.072Z,14.00
2022-12-24T19:33:48.654Z,14.18
2022-12-24T19:36:18.685Z,14.07
2022-12-24T19:38:46.049Z,14.23
2022-12-24T19:41:15.629Z,13.92
2022-12-24T19:43:47.780Z,13.91
2022-12-24T19:46:17.729Z,13.95
2022-12-24T19:48:49.321Z,14.07
2022-12-24T19:51:16.507Z,14.08
2022-12-24T19:53:43.298Z,14.27
2022-12-24T19:56:10.797Z,14.47
2022-12-24T19:58:37.594Z,14.24
2022-12-24T20:01:18.932Z,14.09
2022-12-24T20:03:47.050Z,13.80
2022-12-24T20:06:15.471Z,14.34
2022-12-24T20:08:42.611Z,13.97
2022-12-24T20:11:13.063Z,14.12
2022-12-24T20:13:41.013Z,14.00
2022-12-24T20:16:13.691Z,14.14
2022-12-24T20:18:40.606Z,14.06
2022-12-24T20:21:10.285Z,14.16
2022-12-24T20:23:38.932Z,13.76
2022-12-24T20:26:06.738Z,14.15
2022-12-24T20:28:35.801Z,14.18
2022-12-24T20:31:10.303Z,14.21
2022-12-24T20:33:37.212Z,14.37
2022-12-24T20:36:04.523Z,14.42
2022-12-24T20:38:31.409Z,14.23
2022-12-24T20:40:58.573Z,14.11
2022-12-24T20:43:28.302Z,14.00
2022-12-24T20:45:59.289Z,14.10
2022-12-24T20:48:26.100Z,14.04
2022-12-24T20:50:52.833Z,13.91
2022-12-24T20:53:19.755Z,14.05
2022-12-24T20:55:48.027Z,13.77
2022-12-24T20:58:18.087Z,13.76
2022-12-24T21:00:46.419Z,13.77
2022-12-24T21:03:15.162Z,14.06
2022-12-24T21:05:42.489Z,13.79
2022-12-24T21:08:10.697Z,13.81
2022-12-24T21:10:37.875Z,14.12
2022-12-24T21:13:05.965Z,14.17
2022-12-24T21:15:36.281Z,13.74
2022-12-24T21:18:10.097Z,13.96
2022-12-24T21:20:38.692Z,13.97
2022-12-24T21:23:05.902Z,13.71
2022-12-24T21:25:33.012Z,13.94
2022-12-24T21:27:59.830Z,14.18
2022-12-24T21:30:26.561Z,14.24
2022-12-24T21:32:53.405Z,14.27
2022-12-24T21:35:20.343Z,14.00
2022-12-24T21:37:47.107Z,13.59
2022-12-24T21:40:13.856Z,13.98
2022-12-24T21:42:40.854Z,14.21
2022-12-24T21:45:08.265Z,13.95
2022-12-24T21:47:35.541Z,13.85
2022-12-24T21:50:21.451Z,13.59
2022-12-24T21:53:08.477Z,13.50
2022-12-24T21:55:35.361Z,13.45
2022-12-24T21:58:02.216Z,13.84
2022-12-24T22:00:30.712Z,13.72
2022-12-24T22:02:58.915Z,13.75
2022-12-24T22:05:26.507Z,14.26
2022-12-24T22:08:13.211Z,13.68
2022-12-24T22:10:59.018Z,13.80
2022-12-24T22:13:26.209Z,13.76
2022-12-24T22:15:54.269Z,13.86
2022-12-24T22:18:23.523Z,13.82
2022-12-24T22:20:51.191Z,13.85
2022-12-24T22:23:19.379Z,13.66
2022-12-24T22:25:46.533Z,13.88
2022-12-24T22:28:13.659Z,13.66
2022-12-24T22:30:42.431Z,13.23
2022-12-24T22:33:10.501Z,13.31
2022-12-24T22:35:39.386Z,13.40
2022-12-24T22:38:08.003Z,13.67
2022-12-24T22:40:34.749Z,13.55
2022-12-24T22:43:01.551Z,13.34
2022-12-24T22:45:28.350Z,13.28
2022-12-24T22:47:55.080Z,13.61
2022-12-24T22:50:22.101Z,13.30
2022-12-24T22:52:49.089Z,13.13
2022-12-24T22:55:15.891Z,13.29
2022-12-24T22:57:42.622Z,13.43
2022-12-24T23:00:17.223Z,13.56
2022-12-24T23:02:44.279Z,13.52
2022-12-24T23:05:15.101Z,13.63
2022-12-24T23:07:41.907Z,13.57
2022-12-24T23:10:11.959Z,13.74
2022-12-24T23:12:57.689Z,13.54
2022-12-24T23:15:24.580Z,13.81
2022-12-24T23:17:51.458Z,13.96
2022-12-24T23:20:18.454Z,13.86
2022-12-24T23:22:45.281Z,13.61
2022-12-24T23:25:12.135Z,13.66
2022-12-24T23:27:39.397Z,14.04
2022-12-24T23:30:07.604Z,13.47
2022-12-24T23:32:34.282Z,13.29
2022-12-24T23:35:01.253Z,13.26
2022-12-24T23:37:34.725Z,13.57
2022-12-24T23:40:02.575Z,13.55
2022-12-24T23:42:29.761Z,13.86
2022-12-24T23:44:56.632Z,13.70
2022-12-24T23:47:23.359Z,13.56
2022-12-24T23:49:57.681Z,13.91
2022-12-24T23:52:24.460Z,14.30
2022-12-24T23:54:51.347Z,13.70
2022-12-24T23:57:18.494Z,14.17
2022-12-24T23:59:45.341Z,14.30
